createdAt,value
2022-11-02T00:00:50.367Z,93.52
2022-11-02T00:01:50.435Z,93.63
2022-11-02T00:02:50.322Z,93.84
2022-11-02T00:03:50.305Z,94.04
2022-11-02T00:04:50.314Z,94.14
2022-11-02T00:05:51.238Z,94.14
2022-11-02T00:06:50.277Z,94.14
2022-11-02T00:07:50.261Z,94.14
2022-11-02T00:08:50.246Z,94.24
2022-11-02T00:09:50.252Z,94.24
2022-11-02T00:10:50.229Z,94.29
2022-11-02T00:11:50.215Z,94.39
2022-11-02T00:12:50.188Z,94.49
2022-11-02T00:13:50.221Z,94.59
2022-11-02T00:14:50.170Z,94.49
2022-11-02T00:15:50.168Z,94.39
2022-11-02T00:16:50.158Z,94.39
2022-11-02T00:17:50.203Z,94.29
2022-11-02T00:18:50.160Z,94.29
2022-11-02T00:19:50.132Z,94.29
2022-11-02T00:20:50.100Z,94.49
2022-11-02T00:21:50.114Z,94.64
2022-11-02T00:22:50.081Z,94.74
2022-11-02T00:23:50.102Z,94.95
2022-11-02T00:24:50.081Z,95.05
2022-11-02T00:25:50.072Z,95.05
2022-11-02T00:26:50.051Z,95.05
2022-11-02T00:27:50.057Z,95.25
2022-11-02T00:28:50.032Z,95.36
2022-11-02T00:29:50.029Z,95.36
2022-11-02T00:30:50.178Z,95.46
2022-11-02T00:31:50.026Z,95.36
2022-11-02T00:32:49.991Z,95.36
2022-11-02T00:33:49.972Z,95.25
2022-11-02T00:34:49.972Z,95.15
2022-11-02T00:35:49.952Z,95.05
2022-11-02T00:36:55.223Z,95.05
2022-11-02T00:37:50.958Z,95.25
2022-11-02T00:38:49.911Z,95.36
2022-11-02T00:39:49.933Z,95.56
2022-11-02T00:40:49.893Z,95.56
2022-11-02T00:41:50.060Z,95.66
2022-11-02T00:42:49.863Z,95.66
2022-11-02T00:43:49.862Z,95.66
2022-11-02T00:44:49.853Z,95.66
2022-11-02T00:45:49.845Z,95.66
2022-11-02T00:46:49.866Z,95.66
2022-11-02T00:47:49.836Z,95.46
2022-11-02T00:48:49.816Z,95.36
2022-11-02T00:49:49.811Z,95.25
2022-11-02T00:50:49.784Z,95.25
2022-11-02T00:51:49.794Z,95.36
2022-11-02T00:52:49.785Z,95.36
2022-11-02T00:53:49.753Z,95.25
2022-11-02T00:54:49.765Z,95.36
2022-11-02T00:55:49.725Z,95.46
2022-11-02T00:56:49.816Z,95.66
2022-11-02T00:57:49.735Z,95.87
2022-11-02T00:58:49.716Z,96.07
2022-11-02T00:59:49.708Z,96.28
2022-11-02T01:00:49.686Z,96.38
2022-11-02T01:01:49.819Z,96.48
2022-11-02T01:02:49.779Z,96.79
2022-11-02T01:03:49.647Z,96.79
2022-11-02T01:04:49.635Z,96.79
2022-11-02T01:05:49.636Z,96.89
2022-11-02T01:06:49.616Z,96.99
2022-11-02T01:07:49.616Z,96.99
2022-11-02T01:08:49.608Z,96.99
2022-11-02T01:09:49.577Z,96.99
2022-11-02T01:10:49.589Z,96.99
2022-11-02T01:11:49.568Z,96.99
2022-11-02T01:12:49.592Z,97.04
2022-11-02T01:13:49.536Z,96.99
2022-11-02T01:14:49.538Z,96.99
2022-11-02T01:15:49.527Z,96.99
2022-11-02T01:16:49.533Z,96.99
2022-11-02T01:17:49.488Z,96.99
2022-11-02T01:18:49.518Z,96.79
2022-11-02T01:19:49.487Z,96.69
2022-11-02T01:20:49.468Z,96.48
2022-11-02T01:21:49.456Z,96.48
2022-11-02T01:22:49.449Z,96.38
2022-11-02T01:23:49.454Z,96.28
2022-11-02T01:24:49.430Z,96.28
2022-11-02T01:25:49.430Z,96.28
2022-11-02T01:26:49.400Z,96.38
2022-11-02T01:27:49.393Z,96.48
2022-11-02T01:28:49.390Z,96.58
2022-11-02T01:29:49.360Z,96.89
2022-11-02T01:30:49.363Z,96.99
2022-11-02T01:31:49.341Z,97.09
2022-11-02T01:32:49.340Z,97.30
2022-11-02T01:33:49.334Z,97.71
2022-11-02T01:34:49.355Z,97.91
2022-11-02T01:35:49.299Z,97.87
2022-11-02T01:36:49.307Z,97.87
2022-11-02T01:37:49.291Z,97.77
2022-11-02T01:38:49.292Z,97.66
2022-11-02T01:39:49.282Z,97.66
2022-11-02T01:40:49.253Z,97.52
2022-11-02T01:41:49.231Z,97.41
2022-11-02T01:42:49.239Z,97.31
2022-11-02T01:43:49.245Z,97.31
2022-11-02T01:44:49.242Z,97.21
2022-11-02T01:45:49.201Z,97.31
2022-11-02T01:46:49.233Z,97.21
2022-11-02T01:47:49.184Z,96.96
2022-11-02T01:48:49.173Z,96.75
2022-11-02T01:49:49.158Z,96.66
2022-11-02T01:50:49.155Z,96.66
2022-11-02T01:51:49.145Z,96.45
2022-11-02T01:52:49.123Z,96.45
2022-11-02T01:53:49.114Z,96.45
2022-11-02T01:54:49.123Z,96.55
2022-11-02T01:55:49.084Z,96.45
2022-11-02T01:56:49.082Z,96.45
2022-11-02T01:57:49.066Z,96.34
2022-11-02T01:58:49.055Z,96.45
2022-11-02T01:59:49.034Z,96.34
2022-11-02T02:00:49.078Z,96.25
2022-11-02T02:01:49.137Z,96.14
2022-11-02T02:02:49.060Z,96.14
2022-11-02T02:03:49.007Z,96.00
2022-11-02T02:04:48.985Z,96.10
2022-11-02T02:05:48.977Z,96.10
2022-11-02T02:06:48.965Z,95.89
2022-11-02T02:07:48.976Z,95.79
2022-11-02T02:08:48.957Z,95.69
2022-11-02T02:09:51.357Z,95.69
2022-11-02T02:10:48.923Z,95.48
2022-11-02T02:11:48.916Z,95.38
2022-11-02T02:12:48.895Z,95.13
2022-11-02T02:13:48.896Z,94.93
2022-11-02T02:14:48.876Z,94.73
2022-11-02T02:15:48.866Z,94.62
2022-11-02T02:17:48.846Z,94.52
2022-11-02T02:18:48.834Z,94.62
2022-11-02T02:19:48.858Z,94.62
2022-11-02T02:20:48.809Z,94.62
2022-11-02T02:21:48.808Z,94.73
2022-11-02T02:22:48.788Z,94.93
2022-11-02T02:23:48.785Z,95.03
2022-11-02T02:24:48.772Z,95.03
2022-11-02T02:25:48.779Z,94.93
2022-11-02T02:26:48.745Z,94.82
2022-11-02T02:27:48.738Z,94.97
2022-11-02T02:28:48.732Z,94.97
2022-11-02T02:29:48.729Z,94.97
2022-11-02T02:30:48.706Z,94.97
2022-11-02T02:31:48.697Z,94.97
2022-11-02T02:32:48.687Z,94.97
2022-11-02T02:33:48.678Z,95.07
2022-11-02T02:34:48.659Z,95.07
2022-11-02T02:35:48.649Z,95.07
2022-11-02T02:36:48.662Z,95.07
2022-11-02T02:37:48.656Z,95.07
2022-11-02T02:38:48.611Z,95.18
2022-11-02T02:39:48.632Z,95.18
2022-11-02T02:40:48.599Z,95.18
2022-11-02T02:41:48.610Z,95.07
2022-11-02T02:42:48.570Z,95.18
2022-11-02T02:43:48.571Z,95.18
2022-11-02T02:44:48.561Z,95.18
2022-11-02T02:45:48.551Z,95.28
2022-11-02T02:46:51.050Z,95.28
2022-11-02T02:47:49.531Z,95.28
2022-11-02T02:48:48.511Z,95.28
2022-11-02T02:49:48.505Z,95.28
2022-11-02T02:50:48.502Z,95.28
2022-11-02T02:51:48.480Z,95.28
2022-11-02T02:52:48.470Z,95.28
2022-11-02T02:53:48.471Z,95.28
2022-11-02T02:54:48.449Z,95.28
2022-11-02T02:55:48.453Z,95.28
2022-11-02T02:56:48.430Z,95.18
2022-11-02T02:57:48.412Z,95.18
2022-11-02T02:58:48.405Z,95.18
2022-11-02T02:59:48.410Z,95.18
2022-11-02T03:00:48.374Z,95.22
2022-11-02T03:01:48.443Z,95.32
2022-11-02T03:02:48.353Z,95.32
2022-11-02T03:03:48.360Z,95.43
2022-11-02T03:04:48.351Z,95.43
2022-11-02T03:05:48.333Z,95.43
2022-11-02T03:06:48.324Z,95.43
2022-11-02T03:07:48.328Z,95.53
2022-11-02T03:08:48.295Z,95.53
2022-11-02T03:09:48.285Z,95.53
2022-11-02T03:10:48.267Z,95.53
2022-11-02T03:11:48.284Z,95.53
2022-11-02T03:12:48.254Z,95.73
2022-11-02T03:13:48.245Z,95.84
2022-11-02T03:14:48.226Z,95.84
2022-11-02T03:15:48.223Z,95.84
2022-11-02T03:16:48.325Z,95.94
2022-11-02T03:17:48.196Z,95.94
2022-11-02T03:18:48.193Z,95.94
2022-11-02T03:19:48.176Z,95.94
2022-11-02T03:20:48.169Z,95.94
2022-11-02T03:21:48.176Z,95.94
2022-11-02T03:22:48.145Z,95.79
2022-11-02T03:23:48.135Z,95.79
2022-11-02T03:24:48.118Z,95.79
2022-11-02T03:25:48.115Z,95.79
2022-11-02T03:26:48.116Z,95.79
2022-11-02T03:27:48.096Z,95.79
2022-11-02T03:28:48.087Z,95.79
2022-11-02T03:29:48.067Z,95.69
2022-11-02T03:30:48.060Z,95.69
2022-11-02T03:31:48.059Z,95.59
2022-11-02T03:32:48.036Z,95.59
2022-11-02T03:33:48.028Z,95.48
2022-11-02T03:34:48.018Z,95.48
2022-11-02T03:35:48.007Z,95.38
2022-11-02T03:36:48.010Z,95.28
2022-11-02T03:37:48.009Z,95.28
2022-11-02T03:38:47.973Z,95.28
2022-11-02T03:39:47.990Z,95.38
2022-11-02T03:40:47.951Z,95.28
2022-11-02T03:41:47.947Z,95.28
2022-11-02T03:42:47.929Z,95.28
2022-11-02T03:43:47.931Z,95.38
2022-11-02T03:44:47.901Z,95.43
2022-11-02T03:45:47.900Z,95.43
2022-11-02T03:46:47.881Z,95.53
2022-11-02T03:47:47.883Z,95.53
2022-11-02T03:48:47.869Z,95.53
2022-11-02T03:49:47.850Z,95.53
2022-11-02T03:50:47.859Z,95.53
2022-11-02T03:51:47.830Z,95.53
2022-11-02T03:52:47.819Z,95.63
2022-11-02T03:53:47.851Z,95.63
2022-11-02T03:54:47.821Z,95.63
2022-11-02T03:55:47.792Z,95.73
2022-11-02T03:56:47.782Z,95.84
2022-11-02T03:57:47.769Z,95.84
2022-11-02T03:58:47.752Z,95.94
2022-11-02T03:59:47.753Z,95.94
2022-11-02T04:00:47.733Z,95.84
2022-11-02T04:01:47.840Z,95.84
2022-11-02T04:02:47.781Z,95.73
2022-11-02T04:03:47.724Z,95.53
2022-11-02T04:04:47.694Z,95.53
2022-11-02T04:05:47.681Z,95.28
2022-11-02T04:06:47.666Z,95.07
2022-11-02T04:07:49.991Z,94.77
2022-11-02T04:08:47.655Z,94.56
2022-11-02T04:09:47.645Z,94.46
2022-11-02T04:10:47.624Z,94.11
2022-11-02T04:11:47.633Z,94.01
2022-11-02T04:12:47.603Z,93.91
2022-11-02T04:13:47.594Z,93.70
2022-11-02T04:14:47.603Z,93.60
2022-11-02T04:15:47.575Z,93.60
2022-11-02T04:16:47.565Z,93.40
2022-11-02T04:17:47.553Z,93.19
2022-11-02T04:18:47.536Z,93.09
2022-11-02T04:19:49.849Z,92.78
2022-11-02T04:20:47.515Z,92.43
2022-11-02T04:21:47.507Z,92.13
2022-11-02T04:22:47.506Z,91.92
2022-11-02T04:23:47.486Z,91.72
2022-11-02T04:24:47.468Z,91.72
2022-11-02T04:25:47.471Z,91.72
2022-11-02T04:26:47.456Z,91.37
2022-11-02T04:27:47.466Z,91.31
2022-11-02T04:28:47.426Z,91.31
2022-11-02T04:29:47.425Z,91.31
2022-11-02T04:30:47.428Z,91.31
2022-11-02T04:31:47.406Z,91.41
2022-11-02T04:32:47.387Z,91.41
2022-11-02T04:33:47.388Z,91.11
2022-11-02T04:34:47.365Z,91.06
2022-11-02T04:35:47.377Z,90.96
2022-11-02T04:36:47.348Z,90.86
2022-11-02T04:37:47.338Z,90.86
2022-11-02T04:38:47.318Z,91.06
2022-11-02T04:39:47.326Z,91.06
2022-11-02T04:40:47.323Z,90.86
2022-11-02T04:41:47.298Z,90.80
2022-11-02T04:42:47.301Z,91.11
2022-11-02T04:43:47.277Z,90.90
2022-11-02T04:44:47.269Z,90.90
2022-11-02T04:45:47.251Z,91.11
2022-11-02T04:46:47.246Z,90.90
2022-11-02T04:47:47.228Z,90.80
2022-11-02T04:48:47.221Z,90.80
2022-11-02T04:49:47.240Z,90.49
2022-11-02T04:50:47.198Z,90.39
2022-11-02T04:51:49.749Z,90.39
2022-11-02T04:52:47.171Z,90.49
2022-11-02T04:53:47.169Z,90.29
2022-11-02T04:54:47.162Z,89.98
2022-11-02T04:55:47.161Z,90.08
2022-11-02T04:56:47.133Z,89.98
2022-11-02T04:57:47.124Z,90.08
2022-11-02T04:58:47.121Z,90.08
2022-11-02T04:59:47.100Z,90.19
2022-11-02T05:00:47.094Z,89.98
2022-11-02T05:01:47.161Z,90.19
2022-11-02T05:02:47.142Z,90.29
2022-11-02T05:03:47.074Z,90.49
2022-11-02T05:04:47.065Z,90.70
2022-11-02T05:05:47.037Z,90.90
2022-11-02T05:06:47.030Z,91.00
2022-11-02T05:07:47.012Z,91.15
2022-11-02T05:08:47.013Z,91.25
2022-11-02T05:09:47.007Z,91.46
2022-11-02T05:10:46.980Z,91.56
2022-11-02T05:11:46.974Z,91.76
2022-11-02T05:12:46.982Z,91.91
2022-11-02T05:13:47.228Z,92.01
2022-11-02T05:14:46.939Z,92.21
2022-11-02T05:15:46.933Z,92.42
2022-11-02T05:16:46.921Z,92.52
2022-11-02T05:17:46.914Z,92.83
2022-11-02T05:18:46.895Z,92.87
2022-11-02T05:19:46.876Z,92.97
2022-11-02T05:20:46.913Z,93.07
2022-11-02T05:21:46.854Z,93.28
2022-11-02T05:22:46.858Z,93.38
2022-11-02T05:23:46.842Z,93.59
2022-11-02T05:24:46.858Z,93.73
2022-11-02T05:25:46.812Z,93.93
2022-11-02T05:26:51.300Z,93.93
2022-11-02T05:27:47.794Z,94.04
2022-11-02T05:28:46.805Z,94.04
2022-11-02T05:29:46.769Z,94.14
2022-11-02T05:30:46.766Z,94.14
2022-11-02T05:31:46.755Z,94.24
2022-11-02T05:32:46.773Z,94.34
2022-11-02T05:33:46.736Z,94.45
2022-11-02T05:34:46.727Z,94.55
2022-11-02T05:35:46.706Z,94.59
2022-11-02T05:36:46.718Z,94.59
2022-11-02T05:37:46.701Z,94.70
2022-11-02T05:38:46.676Z,94.80
2022-11-02T05:39:49.502Z,94.80
2022-11-02T05:40:46.657Z,94.90
2022-11-02T05:41:46.647Z,95.00
2022-11-02T05:42:46.648Z,95.00
2022-11-02T05:43:46.626Z,95.00
2022-11-02T05:44:46.621Z,95.21
2022-11-02T05:45:46.598Z,95.21
2022-11-02T05:46:46.596Z,95.21
2022-11-02T05:47:46.628Z,95.10
2022-11-02T05:48:46.570Z,95.21
2022-11-02T05:49:46.563Z,95.36
2022-11-02T05:50:46.550Z,95.46
2022-11-02T05:51:46.566Z,95.46
2022-11-02T05:52:46.541Z,95.56
2022-11-02T05:53:46.511Z,95.56
2022-11-02T05:54:46.528Z,95.56
2022-11-02T05:55:46.499Z,95.56
2022-11-02T05:56:46.508Z,95.46
2022-11-02T05:57:46.490Z,95.56
2022-11-02T05:58:46.509Z,95.56
2022-11-02T05:59:49.218Z,95.66
2022-11-02T06:00:46.461Z,95.66
2022-11-02T06:01:46.487Z,95.87
2022-11-02T06:02:46.431Z,96.17
2022-11-02T06:03:52.073Z,96.28
2022-11-02T06:04:47.474Z,96.23
2022-11-02T06:05:46.459Z,96.13
2022-11-02T06:06:46.397Z,96.13
2022-11-02T06:07:46.379Z,96.03
2022-11-02T06:08:46.364Z,96.03
2022-11-02T06:09:46.370Z,95.82
2022-11-02T06:10:46.331Z,95.57
2022-11-02T06:11:46.350Z,95.17
2022-11-02T06:12:46.327Z,95.06
2022-11-02T06:13:46.291Z,94.71
2022-11-02T06:14:46.293Z,94.51
2022-11-02T06:15:46.279Z,94.30
2022-11-02T06:16:46.272Z,94.10
2022-11-02T06:17:46.281Z,93.99
2022-11-02T06:18:46.245Z,93.79
2022-11-02T06:19:46.245Z,93.69
2022-11-02T06:20:46.225Z,93.54
2022-11-02T06:21:48.432Z,93.44
2022-11-02T06:22:46.223Z,93.44
2022-11-02T06:23:46.183Z,93.33
2022-11-02T06:24:46.186Z,93.33
2022-11-02T06:25:46.174Z,93.33
2022-11-02T06:26:46.165Z,93.33
2022-11-02T06:27:46.194Z,93.33
2022-11-02T06:28:46.134Z,93.38
2022-11-02T06:29:46.161Z,93.48
2022-11-02T06:30:46.124Z,93.38
2022-11-02T06:31:46.111Z,93.48
2022-11-02T06:32:46.095Z,93.59
2022-11-02T06:33:46.106Z,93.54
2022-11-02T06:34:46.084Z,93.44
2022-11-02T06:35:46.065Z,93.44
2022-11-02T06:36:46.066Z,93.44
2022-11-02T06:37:46.065Z,93.33
2022-11-02T06:38:46.047Z,93.24
2022-11-02T06:39:46.016Z,93.13
2022-11-02T06:40:46.016Z,92.93
2022-11-02T06:41:45.999Z,92.88
2022-11-02T06:43:03.282Z,92.68
2022-11-02T06:43:46.987Z,92.58
2022-11-02T06:44:45.966Z,92.37
2022-11-02T06:45:45.948Z,92.17
2022-11-02T06:46:45.946Z,91.92
2022-11-02T06:47:45.926Z,91.72
2022-11-02T06:48:45.937Z,91.72
2022-11-02T06:49:45.924Z,91.41
2022-11-02T06:50:45.906Z,91.20
2022-11-02T06:51:45.904Z,91.20
2022-11-02T06:52:45.877Z,91.06
2022-11-02T06:53:45.867Z,90.75
2022-11-02T06:54:45.869Z,90.75
2022-11-02T06:55:45.848Z,90.66
2022-11-02T06:56:45.857Z,90.45
2022-11-02T06:57:45.842Z,90.41
2022-11-02T06:58:45.849Z,90.31
2022-11-02T06:59:49.948Z,90.20
2022-11-02T07:00:46.935Z,90.00
2022-11-02T07:01:45.971Z,89.90
2022-11-02T07:02:45.769Z,89.49
2022-11-02T07:03:46.723Z,89.34
2022-11-02T07:04:45.751Z,89.25
2022-11-02T07:05:45.738Z,89.25
2022-11-02T07:06:45.757Z,89.04
2022-11-02T07:07:45.721Z,89.14
2022-11-02T07:08:45.722Z,89.14
2022-11-02T07:09:45.711Z,89.14
2022-11-02T07:10:45.694Z,89.25
2022-11-02T07:11:45.703Z,89.25
2022-11-02T07:12:45.670Z,89.14
2022-11-02T07:13:46.506Z,89.14
2022-11-02T07:14:45.681Z,89.04
2022-11-02T07:15:45.663Z,89.10
2022-11-02T07:16:45.635Z,89.20
2022-11-02T07:17:45.622Z,89.30
2022-11-02T07:18:45.601Z,89.40
2022-11-02T07:19:45.601Z,89.40
2022-11-02T07:20:45.582Z,89.40
2022-11-02T07:21:47.699Z,89.10
2022-11-02T07:22:45.573Z,89.20
2022-11-02T07:23:45.572Z,88.90
2022-11-02T07:24:45.532Z,88.69
2022-11-02T07:25:45.532Z,88.79
2022-11-02T07:26:45.533Z,88.96
2022-11-02T07:27:45.511Z,88.85
2022-11-02T07:28:45.503Z,88.75
2022-11-02T07:29:45.476Z,88.55
2022-11-02T07:30:45.465Z,88.65
2022-11-02T07:31:45.484Z,88.65
2022-11-02T07:32:45.454Z,88.96
2022-11-02T07:33:45.446Z,88.96
2022-11-02T07:34:45.432Z,88.24
2022-11-02T07:35:45.427Z,88.04
2022-11-02T07:36:45.406Z,88.04
2022-11-02T07:37:45.384Z,88.14
2022-11-02T07:38:45.402Z,88.14
2022-11-02T07:39:45.365Z,88.20
2022-11-02T07:40:45.366Z,88.31
2022-11-02T07:41:50.819Z,87.69
2022-11-02T07:42:46.345Z,87.59
2022-11-02T07:43:45.347Z,87.69
2022-11-02T07:44:45.338Z,87.69
2022-11-02T07:45:45.343Z,87.79
2022-11-02T07:46:45.305Z,87.79
2022-11-02T07:47:45.288Z,87.69
2022-11-02T07:48:45.287Z,87.69
2022-11-02T07:49:45.267Z,87.65
2022-11-02T07:50:45.281Z,87.35
2022-11-02T07:51:45.239Z,87.24
2022-11-02T07:52:45.239Z,87.24
2022-11-02T07:53:45.218Z,86.63
2022-11-02T07:54:45.222Z,86.43
2022-11-02T07:55:45.232Z,86.13
2022-11-02T07:56:45.191Z,86.08
2022-11-02T07:57:45.190Z,85.98
2022-11-02T07:58:45.172Z,85.78
2022-11-02T07:59:45.159Z,85.68
2022-11-02T08:00:45.172Z,85.64
2022-11-02T08:01:46.276Z,85.74
2022-11-02T08:02:45.210Z,85.33
2022-11-02T08:03:45.127Z,85.03
2022-11-02T08:04:45.368Z,85.03
2022-11-02T08:05:45.119Z,85.13
2022-11-02T08:06:45.080Z,84.99
2022-11-02T08:07:45.062Z,84.17
2022-11-02T08:08:45.084Z,84.17
2022-11-02T08:09:45.041Z,84.28
2022-11-02T08:10:45.041Z,84.38
2022-11-02T08:11:45.031Z,84.28
2022-11-02T08:12:45.022Z,84.17
2022-11-02T08:13:45.300Z,84.38
2022-11-02T08:14:44.999Z,84.17
2022-11-02T08:15:45.961Z,84.13
2022-11-02T08:16:45.122Z,83.83
2022-11-02T08:17:44.983Z,83.53
2022-11-02T08:18:45.082Z,83.42
2022-11-02T08:19:44.973Z,83.42
2022-11-02T08:20:44.964Z,83.53
2022-11-02T08:21:44.914Z,83.12
2022-11-02T08:22:44.913Z,83.32
2022-11-02T08:23:44.910Z,83.12
2022-11-02T08:24:44.893Z,83.28
2022-11-02T08:25:44.893Z,83.48
2022-11-02T08:26:45.945Z,83.38
2022-11-02T08:27:44.853Z,83.08
2022-11-02T08:28:44.854Z,82.78
2022-11-02T08:29:44.847Z,82.78
2022-11-02T08:30:44.824Z,82.47
2022-11-02T08:31:44.834Z,82.67
2022-11-02T08:32:44.806Z,82.64
2022-11-02T08:33:44.793Z,81.82
2022-11-02T08:34:44.776Z,81.92
2022-11-02T08:35:44.815Z,81.92
2022-11-02T08:36:44.756Z,82.12
2022-11-02T08:37:44.744Z,82.12
2022-11-02T08:38:44.753Z,81.72
2022-11-02T08:39:44.735Z,81.21
2022-11-02T08:40:44.719Z,81.52
2022-11-02T08:41:44.710Z,81.52
2022-11-02T08:42:44.706Z,81.41
2022-11-02T08:43:44.689Z,80.97
2022-11-02T08:44:44.698Z,81.07
2022-11-02T08:46:45.693Z,80.77
2022-11-02T08:47:44.682Z,80.66
2022-11-02T08:48:44.654Z,80.77
2022-11-02T08:49:44.615Z,80.97
2022-11-02T08:50:45.328Z,80.87
2022-11-02T08:51:44.621Z,80.57
2022-11-02T08:52:45.666Z,80.63
2022-11-02T08:53:50.190Z,80.22
2022-11-02T08:54:46.544Z,80.43
2022-11-02T08:55:44.568Z,80.32
2022-11-02T08:56:45.551Z,80.32
2022-11-02T08:57:44.530Z,80.63
2022-11-02T08:58:45.242Z,80.43
2022-11-02T08:59:44.530Z,79.72
2022-11-02T09:00:44.642Z,79.92
2022-11-02T09:01:44.659Z,80.22
2022-11-02T09:02:44.673Z,79.61
2022-11-02T09:03:44.460Z,80.02
2022-11-02T09:04:44.451Z,80.12
2022-11-02T09:05:44.452Z,79.92
2022-11-02T09:06:44.432Z,80.22
2022-11-02T09:07:44.413Z,80.43
2022-11-02T09:08:44.432Z,79.82
2022-11-02T09:09:44.392Z,79.92
2022-11-02T09:10:44.404Z,79.61
2022-11-02T09:11:44.374Z,79.82
2022-11-02T09:12:44.375Z,79.78
2022-11-02T09:13:44.439Z,79.78
2022-11-02T09:14:44.353Z,79.98
2022-11-02T09:15:44.326Z,79.68
2022-11-02T09:16:44.324Z,79.88
2022-11-02T09:17:44.305Z,79.88
2022-11-02T09:18:44.315Z,79.47
2022-11-02T09:19:44.297Z,79.68
2022-11-02T09:20:44.275Z,79.34
2022-11-02T09:21:44.265Z,79.34
2022-11-02T09:22:44.255Z,79.64
2022-11-02T09:23:44.307Z,79.13
2022-11-02T09:24:44.225Z,79.13
2022-11-02T09:25:44.237Z,78.33
2022-11-02T09:26:44.209Z,78.02
2022-11-02T09:27:44.254Z,77.92
2022-11-02T09:28:44.214Z,77.82
2022-11-02T09:29:44.179Z,77.88
2022-11-02T09:30:44.167Z,78.08
2022-11-02T09:31:44.179Z,77.68
2022-11-02T09:32:44.157Z,77.48
2022-11-02T09:33:44.139Z,77.48
2022-11-02T09:34:45.057Z,77.78
2022-11-02T09:35:44.121Z,77.78
2022-11-02T09:36:44.128Z,77.58
2022-11-02T09:37:48.362Z,77.54
2022-11-02T09:38:45.093Z,77.44
2022-11-02T09:39:44.088Z,76.83
2022-11-02T09:40:44.069Z,76.53
2022-11-02T09:41:44.061Z,76.43
2022-11-02T09:42:44.030Z,76.73
2022-11-02T09:43:44.030Z,76.63
2022-11-02T09:44:44.038Z,76.73
2022-11-02T09:45:44.012Z,76.73
2022-11-02T09:46:43.989Z,76.19
2022-11-02T09:48:44.968Z,75.89
2022-11-02T09:49:43.961Z,75.68
2022-11-02T09:50:43.951Z,75.07
2022-11-02T09:51:43.943Z,75.28
2022-11-02T09:52:43.921Z,75.38
2022-11-02T09:53:43.922Z,75.48
2022-11-02T09:54:43.932Z,75.55
2022-11-02T09:55:43.903Z,75.85
2022-11-02T09:56:43.918Z,75.65
2022-11-02T09:57:43.873Z,75.85
2022-11-02T09:58:43.861Z,75.95
2022-11-02T09:59:43.866Z,75.51
2022-11-02T10:00:43.845Z,75.61
2022-11-02T10:01:43.952Z,75.51
2022-11-02T10:02:43.879Z,75.21
2022-11-02T10:03:43.824Z,74.80
2022-11-02T10:04:43.813Z,74.19
2022-11-02T10:05:43.795Z,74.40
2022-11-02T10:06:43.772Z,74.50
2022-11-02T10:07:43.764Z,74.40
2022-11-02T10:08:43.776Z,73.79
2022-11-02T10:09:43.775Z,73.59
2022-11-02T10:10:43.730Z,72.88
2022-11-02T10:11:43.728Z,73.39
2022-11-02T10:12:43.737Z,72.88
2022-11-02T10:13:43.711Z,72.88
2022-11-02T10:14:43.684Z,73.08
2022-11-02T10:15:43.706Z,72.88
2022-11-02T10:16:43.668Z,73.08
2022-11-02T10:17:43.667Z,72.38
2022-11-02T10:18:43.656Z,72.38
2022-11-02T10:19:43.665Z,72.17
2022-11-02T10:20:43.630Z,71.77
2022-11-02T10:21:43.629Z,71.97
2022-11-02T10:22:43.611Z,70.96
2022-11-02T10:23:43.597Z,70.86
2022-11-02T10:24:43.578Z,70.46
2022-11-02T10:25:43.599Z,70.69
2022-11-02T10:26:43.583Z,71.00
2022-11-02T10:27:43.582Z,70.66
2022-11-02T10:28:43.530Z,70.25
2022-11-02T10:29:43.560Z,70.46
2022-11-02T10:30:43.535Z,70.46
2022-11-02T10:31:43.561Z,70.66
2022-11-02T10:33:43.491Z,70.66
2022-11-02T10:34:43.481Z,70.86
2022-11-02T10:36:11.961Z,70.76
2022-11-02T10:36:44.441Z,70.56
2022-11-02T10:37:43.452Z,70.66
2022-11-02T10:38:43.433Z,70.66
2022-11-02T10:39:43.411Z,70.56
2022-11-02T10:40:43.442Z,70.46
2022-11-02T10:41:43.402Z,70.36
2022-11-02T10:42:43.383Z,70.56
2022-11-02T10:43:45.189Z,70.73
2022-11-02T10:44:43.368Z,70.02
2022-11-02T10:45:43.354Z,69.45
2022-11-02T10:46:43.363Z,69.65
2022-11-02T10:47:43.327Z,69.95
2022-11-02T10:48:43.314Z,70.12
2022-11-02T10:49:43.338Z,70.42
2022-11-02T10:50:43.304Z,70.42
2022-11-02T10:51:43.291Z,70.53
2022-11-02T10:52:43.275Z,70.42
2022-11-02T10:53:43.808Z,70.53
2022-11-02T10:54:43.345Z,69.98
2022-11-02T10:55:43.245Z,69.98
2022-11-02T10:56:43.225Z,69.89
2022-11-02T10:57:43.227Z,69.98
2022-11-02T10:58:43.208Z,69.85
2022-11-02T10:59:43.196Z,69.75
2022-11-02T11:00:43.255Z,69.45
2022-11-02T11:01:43.193Z,69.75
2022-11-02T11:02:43.187Z,69.82
2022-11-02T11:03:43.158Z,68.81
2022-11-02T11:04:43.148Z,68.71
2022-11-02T11:05:43.138Z,68.77
2022-11-02T11:06:43.143Z,68.48
2022-11-02T11:07:43.119Z,67.50
2022-11-02T11:08:43.108Z,67.70
2022-11-02T11:09:46.620Z,67.60
2022-11-02T11:10:43.087Z,66.99
2022-11-02T11:11:43.080Z,67.10
2022-11-02T11:12:43.079Z,66.79
2022-11-02T11:16:43.336Z,67.19
2022-11-02T11:19:44.011Z,67.33
2022-11-02T11:20:42.973Z,67.40
2022-11-02T11:21:42.962Z,66.99
2022-11-02T11:22:42.952Z,66.99
2022-11-02T11:23:42.943Z,66.89
2022-11-02T11:24:42.959Z,67.10
2022-11-02T11:25:42.924Z,67.40
2022-11-02T11:26:42.903Z,67.10
2022-11-02T11:27:42.919Z,67.36
2022-11-02T11:28:42.883Z,67.27
2022-11-02T11:29:42.875Z,66.93
2022-11-02T11:31:43.863Z,66.60
2022-11-02T11:32:42.835Z,65.59
2022-11-02T11:33:42.845Z,65.56
2022-11-02T11:34:42.825Z,64.79
2022-11-02T11:35:42.817Z,63.79
2022-11-02T11:36:42.797Z,63.53
2022-11-02T11:37:42.788Z,61.66
2022-11-02T11:38:42.794Z,60.10
2022-11-02T11:39:42.780Z,58.37
2022-11-02T11:40:42.747Z,56.16
2022-11-02T11:41:42.748Z,53.96
2022-11-02T11:42:42.728Z,52.39
2022-11-02T11:43:42.745Z,50.18
2022-11-02T11:44:42.708Z,48.18
2022-11-02T11:45:42.700Z,45.68
2022-11-02T11:46:42.711Z,43.52
2022-11-02T11:47:42.680Z,41.45
2022-11-02T11:48:42.662Z,39.21
2022-11-02T11:50:03.404Z,38.06
2022-11-02T11:50:43.961Z,37.04
2022-11-02T11:51:42.658Z,36.74
2022-11-02T11:52:42.638Z,35.93
2022-11-02T11:53:42.613Z,34.80
2022-11-02T11:54:42.622Z,34.09
2022-11-02T11:55:42.594Z,33.80
2022-11-02T11:56:42.582Z,33.18
2022-11-02T11:57:42.575Z,32.68
2022-11-02T11:58:44.268Z,33.58
2022-11-02T11:59:42.574Z,32.35
2022-11-02T12:00:42.555Z,32.29
2022-11-02T12:01:42.668Z,32.82
2022-11-02T12:02:44.704Z,34.77
2022-11-02T12:03:42.534Z,34.23
2022-11-02T12:04:42.497Z,35.29
2022-11-02T12:05:42.517Z,37.71
2022-11-02T12:06:42.477Z,39.99
2022-11-02T12:07:42.478Z,42.27
2022-11-02T12:08:42.450Z,44.04
2022-11-02T12:09:42.458Z,45.90
2022-11-02T12:10:42.429Z,46.77
2022-11-02T12:11:42.438Z,46.55
2022-11-02T12:12:42.410Z,47.39
2022-11-02T12:13:42.400Z,48.63
2022-11-02T12:14:42.380Z,48.75
2022-11-02T12:15:42.380Z,49.38
2022-11-02T12:16:42.420Z,49.85
2022-11-02T12:17:42.379Z,45.62
2022-11-02T12:18:42.347Z,44.43
2022-11-02T12:19:42.365Z,43.13
2022-11-02T12:20:42.333Z,39.20
2022-11-02T12:21:42.333Z,36.82
2022-11-02T12:22:42.308Z,35.16
2022-11-02T12:23:42.295Z,34.11
2022-11-02T12:24:42.274Z,32.11
2022-11-02T12:25:42.284Z,31.40
2022-11-02T12:26:42.275Z,30.88
2022-11-02T12:27:42.256Z,29.58
2022-11-02T12:28:42.246Z,28.89
2022-11-02T12:29:42.252Z,28.79
2022-11-02T12:30:42.218Z,28.50
2022-11-02T12:31:42.238Z,28.19
2022-11-02T12:32:42.200Z,28.08
2022-11-02T12:33:42.229Z,27.87
2022-11-02T12:34:42.195Z,27.58
2022-11-02T12:35:42.169Z,27.19
2022-11-02T12:37:03.451Z,27.29
2022-11-02T12:37:43.160Z,26.98
2022-11-02T12:38:42.231Z,27.17
2022-11-02T12:39:42.149Z,26.18
2022-11-02T12:40:42.122Z,25.99
2022-11-02T12:41:42.221Z,26.10
2022-11-02T12:42:43.295Z,25.90
2022-11-02T12:43:42.112Z,25.90
2022-11-02T12:44:42.083Z,25.81
2022-11-02T12:45:42.072Z,26.11
2022-11-02T12:46:46.091Z,26.10
2022-11-02T12:47:43.076Z,25.99
2022-11-02T12:48:42.037Z,25.49
2022-11-02T12:49:42.055Z,25.29
2022-11-02T12:50:42.039Z,25.38
2022-11-02T12:51:42.015Z,25.48
2022-11-02T12:52:41.996Z,25.40
2022-11-02T12:53:42.007Z,25.41
2022-11-02T12:54:41.978Z,25.71
2022-11-02T12:55:41.968Z,25.79
2022-11-02T12:56:41.979Z,26.28
2022-11-02T12:57:41.969Z,26.65
2022-11-02T12:58:41.940Z,26.35
2022-11-02T12:59:41.941Z,26.15
2022-11-02T13:00:41.959Z,26.06
2022-11-02T13:01:42.144Z,26.26
2022-11-02T13:02:41.903Z,25.49